createdAt,value
2022-08-14T00:00:02.178Z,63.14
2022-08-14T00:01:02.212Z,63.84
2022-08-14T00:02:03.078Z,64.95
2022-08-14T00:03:03.301Z,64.65
2022-08-14T00:04:03.053Z,63.84
2022-08-14T00:05:02.947Z,63.45
2022-08-14T00:06:25.897Z,63.14
2022-08-14T00:07:02.295Z,64.04
2022-08-14T00:08:02.371Z,64.15
2022-08-14T00:09:02.282Z,63.75
2022-08-14T00:10:51.892Z,64.95
2022-08-14T00:11:02.579Z,65.95
2022-08-14T00:12:02.520Z,65.25
2022-08-14T00:13:07.051Z,64.25
2022-08-14T00:14:02.388Z,63.64
2022-08-14T00:15:03.142Z,64.45
2022-08-14T00:16:02.739Z,64.15
2022-08-14T00:17:02.682Z,64.15
2022-08-14T00:18:02.637Z,64.84
2022-08-14T00:19:06.040Z,64.75
2022-08-14T00:20:02.600Z,65.95
2022-08-14T00:21:03.126Z,63.95
2022-08-14T00:22:02.819Z,63.45
2022-08-14T00:23:16.297Z,62.94
2022-08-14T00:24:03.279Z,63.84
2022-08-14T00:25:03.255Z,63.34
2022-08-14T00:26:06.730Z,63.34
2022-08-14T00:27:03.000Z,64.54
2022-08-14T00:28:03.492Z,64.78
2022-08-14T00:29:03.501Z,64.98
2022-08-14T00:30:03.082Z,64.18
2022-08-14T00:31:02.969Z,64.58
2022-08-14T00:32:02.653Z,64.18
2022-08-14T00:33:15.989Z,63.87
2022-08-14T00:34:37.688Z,66.78
2022-08-14T00:35:02.486Z,64.48
2022-08-14T00:36:36.815Z,65.58
2022-08-14T00:37:02.716Z,64.98
2022-08-14T00:38:02.820Z,64.37
2022-08-14T00:39:02.757Z,65.28
2022-08-14T00:40:02.894Z,65.18
2022-08-14T00:41:02.984Z,64.37
2022-08-14T00:42:02.817Z,64.48
2022-08-14T00:43:02.883Z,64.68
2022-08-14T00:44:02.990Z,66.99
2022-08-14T00:45:02.803Z,64.98
2022-08-14T00:46:02.785Z,65.58
2022-08-14T00:47:02.689Z,65.41
2022-08-14T00:48:02.495Z,65.81
2022-08-14T00:49:02.576Z,67.42
2022-08-14T00:50:02.307Z,65.71
2022-08-14T00:51:02.268Z,64.61
2022-08-14T00:52:02.818Z,64.71
2022-08-14T00:53:02.697Z,64.21
2022-08-14T00:54:03.276Z,64.91
2022-08-14T00:55:03.164Z,66.31
2022-08-14T00:56:06.941Z,64.71
2022-08-14T00:57:02.920Z,65.61
2022-08-14T00:58:02.766Z,64.61
2022-08-14T00:59:03.027Z,65.41
2022-08-14T01:00:02.931Z,66.01
2022-08-14T01:01:02.924Z,66.11
2022-08-14T01:02:02.723Z,65.61
2022-08-14T01:03:02.611Z,64.91
2022-08-14T01:04:02.508Z,65.21
2022-08-14T01:05:02.413Z,64.91
2022-08-14T01:06:03.018Z,66.31
2022-08-14T01:07:04.981Z,65.71
2022-08-14T01:08:02.898Z,65.61
2022-08-14T01:09:02.779Z,67.32
2022-08-14T01:10:02.629Z,65.91
2022-08-14T01:11:03.008Z,66.31
2022-08-14T01:12:02.769Z,65.91
2022-08-14T01:13:01.879Z,65.74
2022-08-14T01:14:05.038Z,65.21
2022-08-14T01:15:02.555Z,65.81
2022-08-14T01:16:03.014Z,66.64
2022-08-14T01:17:02.633Z,65.94
2022-08-14T01:18:02.582Z,66.44
2022-08-14T01:19:02.613Z,66.55
2022-08-14T01:20:02.351Z,66.05
2022-08-14T01:21:02.881Z,66.24
2022-08-14T01:22:02.334Z,67.05
2022-08-14T01:23:02.320Z,66.35
2022-08-14T01:24:02.294Z,68.95
2022-08-14T01:25:01.966Z,67.55
2022-08-14T01:26:01.877Z,67.05
2022-08-14T01:27:02.563Z,66.24
2022-08-14T01:28:02.143Z,66.85
2022-08-14T01:29:02.582Z,68.65
2022-08-14T01:30:04.166Z,69.96
2022-08-14T01:31:02.497Z,68.85
2022-08-14T01:32:03.147Z,68.55
2022-08-14T01:33:03.018Z,67.85
2022-08-14T01:35:19.270Z,69.26
2022-08-14T01:35:19.345Z,70.36
2022-08-14T01:36:07.321Z,68.85
2022-08-14T01:37:03.236Z,68.76
2022-08-14T01:38:03.151Z,68.15
2022-08-14T01:39:02.836Z,68.65
2022-08-14T01:40:02.785Z,69.85
2022-08-14T01:41:03.108Z,68.45
2022-08-14T01:42:02.852Z,68.76
2022-08-14T01:43:02.945Z,68.05
2022-08-14T01:44:02.581Z,67.25
2022-08-14T01:45:02.953Z,66.95
2022-08-14T01:46:06.228Z,66.75
2022-08-14T01:47:05.869Z,67.35
2022-08-14T01:48:03.923Z,67.25
2022-08-14T01:49:03.070Z,68.65
2022-08-14T01:50:03.010Z,67.55
2022-08-14T01:51:02.886Z,66.85
2022-08-14T01:52:02.509Z,66.38
2022-08-14T01:53:02.593Z,68.45
2022-08-14T01:54:02.448Z,68.08
2022-08-14T01:55:02.325Z,67.08
2022-08-14T01:56:02.395Z,68.49
2022-08-14T01:57:02.987Z,68.59
2022-08-14T01:58:20.305Z,67.88
2022-08-14T01:59:02.852Z,67.58
2022-08-14T02:00:03.250Z,67.48
2022-08-14T02:01:03.084Z,68.18
2022-08-14T02:02:03.583Z,67.18
2022-08-14T02:03:04.283Z,66.78
2022-08-14T02:04:03.238Z,66.78
2022-08-14T02:05:03.172Z,66.67
2022-08-14T02:06:32.249Z,67.38
2022-08-14T02:07:03.262Z,68.99
2022-08-14T02:08:09.674Z,69.99
2022-08-14T02:09:03.194Z,69.29
2022-08-14T02:10:03.111Z,69.02
2022-08-14T02:11:02.998Z,70.12
2022-08-14T02:12:03.678Z,69.12
2022-08-14T02:13:03.407Z,68.52
2022-08-14T02:14:07.114Z,68.12
2022-08-14T02:15:03.191Z,68.82
2022-08-14T02:16:22.079Z,68.92
2022-08-14T02:17:02.963Z,70.03
2022-08-14T02:18:02.598Z,69.42
2022-08-14T02:19:02.599Z,70.63
2022-08-14T02:20:03.008Z,69.72
2022-08-14T02:21:02.983Z,69.12
2022-08-14T02:22:03.614Z,69.12
2022-08-14T02:23:03.371Z,70.06
2022-08-14T02:24:02.962Z,69.15
2022-08-14T02:25:02.960Z,68.55
2022-08-14T02:26:18.382Z,69.25
2022-08-14T02:28:23.505Z,71.16
2022-08-14T02:28:24.233Z,69.56
2022-08-14T02:29:03.422Z,70.66
2022-08-14T02:30:03.441Z,70.06
2022-08-14T02:31:03.413Z,71.26
2022-08-14T02:32:03.626Z,69.56
2022-08-14T02:33:03.309Z,71.36
2022-08-14T02:34:03.524Z,70.56
2022-08-14T02:35:03.486Z,71.06
2022-08-14T02:37:02.471Z,70.16
2022-08-14T02:37:06.943Z,71.67
2022-08-14T02:38:04.109Z,69.96
2022-08-14T02:39:03.235Z,69.45
2022-08-14T02:40:05.532Z,69.56
2022-08-14T02:41:09.036Z,68.75
2022-08-14T02:42:04.213Z,69.25
2022-08-14T02:43:03.801Z,69.15
2022-08-14T02:44:03.230Z,70.66
2022-08-14T02:45:02.972Z,71.97
2022-08-14T02:46:02.885Z,71.87
2022-08-14T02:47:03.270Z,71.56
2022-08-14T02:48:03.810Z,71.87
2022-08-14T02:49:06.244Z,72.97
2022-08-14T02:50:03.841Z,71.90
2022-08-14T02:51:03.302Z,72.50
2022-08-14T02:52:03.252Z,73.21
2022-08-14T02:53:03.558Z,73.21
2022-08-14T02:54:03.589Z,72.91
2022-08-14T02:55:03.061Z,72.50
2022-08-14T02:56:10.139Z,72.41
2022-08-14T02:57:15.809Z,71.90
2022-08-14T02:58:03.672Z,72.20
2022-08-14T02:59:05.688Z,73.31
2022-08-14T03:00:02.962Z,72.30
2022-08-14T03:01:03.034Z,72.61
2022-08-14T03:02:02.157Z,73.11
2022-08-14T03:03:02.081Z,73.11
2022-08-14T03:04:01.825Z,73.81
2022-08-14T03:05:02.079Z,73.61
2022-08-14T03:06:02.061Z,73.31
2022-08-14T03:07:07.629Z,74.32
2022-08-14T03:08:02.617Z,74.82
2022-08-14T03:09:02.674Z,74.72
2022-08-14T03:10:27.778Z,73.91
2022-08-14T03:11:02.660Z,73.31
2022-08-14T03:12:02.178Z,74.32
2022-08-14T03:13:01.939Z,74.21
2022-08-14T03:14:02.161Z,74.41
2022-08-14T03:15:02.052Z,74.82
2022-08-14T03:16:02.558Z,73.41
2022-08-14T03:17:02.633Z,75.12
2022-08-14T03:18:02.418Z,75.02
2022-08-14T03:19:02.591Z,75.42
2022-08-14T03:20:02.625Z,74.72
2022-08-14T03:21:02.106Z,74.92
2022-08-14T03:22:02.836Z,75.22
2022-08-14T03:23:04.465Z,75.92
2022-08-14T03:24:02.582Z,77.07
2022-08-14T03:25:03.139Z,75.96
2022-08-14T03:26:02.986Z,76.46
2022-08-14T03:27:02.076Z,76.16
2022-08-14T03:28:02.866Z,76.32
2022-08-14T03:29:02.191Z,76.53
2022-08-14T03:30:05.432Z,76.63
2022-08-14T03:31:02.457Z,75.82
2022-08-14T03:32:02.624Z,75.82
2022-08-14T03:33:02.552Z,76.63
2022-08-14T03:34:02.611Z,76.46
2022-08-14T03:35:02.480Z,75.86
2022-08-14T03:37:28.314Z,76.16
2022-08-14T03:37:51.841Z,75.96
2022-08-14T03:39:13.994Z,76.56
2022-08-14T03:39:15.028Z,75.86
2022-08-14T03:40:03.171Z,75.86
2022-08-14T03:41:03.232Z,76.06
2022-08-14T03:42:02.758Z,76.36
2022-08-14T03:43:02.781Z,76.16
2022-08-14T03:45:25.467Z,75.96
2022-08-14T03:45:27.736Z,76.16
2022-08-14T03:46:02.548Z,76.67
2022-08-14T03:47:03.342Z,76.06
2022-08-14T03:48:03.092Z,76.16
2022-08-14T03:49:03.087Z,75.46
2022-08-14T03:50:02.893Z,74.55
2022-08-14T03:51:03.524Z,74.25
2022-08-14T03:52:02.725Z,74.55
2022-08-14T03:53:02.915Z,76.76
2022-08-14T03:54:02.870Z,76.36
2022-08-14T03:55:02.484Z,76.87
2022-08-14T03:56:02.798Z,76.26
2022-08-14T03:57:03.553Z,76.46
2022-08-14T03:58:02.544Z,75.46
2022-08-14T03:59:02.950Z,76.87
2022-08-14T04:00:02.661Z,75.66
2022-08-14T04:01:02.924Z,76.67
2022-08-14T04:02:04.431Z,75.05
2022-08-14T04:03:02.873Z,75.66
2022-08-14T04:04:02.836Z,75.39
2022-08-14T04:05:08.129Z,75.79
2022-08-14T04:06:02.991Z,75.19
2022-08-14T04:07:03.110Z,77.00
2022-08-14T04:08:22.864Z,78.01
2022-08-14T04:09:02.826Z,77.70
2022-08-14T04:10:03.191Z,76.40
2022-08-14T04:11:07.943Z,75.59
2022-08-14T04:12:03.637Z,75.70
2022-08-14T04:13:04.264Z,77.11
2022-08-14T04:14:03.634Z,76.40
2022-08-14T04:15:03.477Z,77.00
2022-08-14T04:16:05.379Z,76.70
2022-08-14T04:17:02.928Z,76.80
2022-08-14T04:18:02.962Z,78.01
2022-08-14T04:19:02.976Z,78.21
2022-08-14T04:20:02.756Z,77.31
2022-08-14T04:21:04.109Z,77.64
2022-08-14T04:22:04.370Z,78.11
2022-08-14T04:23:03.173Z,78.11
2022-08-14T04:24:03.345Z,78.25
2022-08-14T04:25:05.613Z,79.16
2022-08-14T04:26:03.657Z,79.56
2022-08-14T04:27:03.225Z,81.73
2022-08-14T04:28:03.602Z,80.32
2022-08-14T04:29:13.851Z,78.31
2022-08-14T04:30:02.690Z,78.61
2022-08-14T04:31:02.721Z,77.91
2022-08-14T04:32:57.683Z,76.90
2022-08-14T04:33:07.379Z,77.81
2022-08-14T04:34:03.282Z,77.00
2022-08-14T04:35:07.559Z,76.50
2022-08-14T04:36:03.249Z,76.90
2022-08-14T04:37:03.006Z,76.30
2022-08-14T04:38:02.770Z,78.91
2022-08-14T04:39:02.870Z,78.91
2022-08-14T04:40:03.198Z,78.41
2022-08-14T04:41:02.452Z,78.61
2022-08-14T04:42:03.221Z,79.11
2022-08-14T04:43:02.781Z,78.71
2022-08-14T04:44:02.816Z,79.32
2022-08-14T04:45:03.055Z,78.81
2022-08-14T04:46:03.194Z,79.72
2022-08-14T04:47:03.369Z,80.16
2022-08-14T04:48:03.826Z,79.96
2022-08-14T04:49:03.722Z,78.71
2022-08-14T04:50:04.179Z,77.84
2022-08-14T04:51:03.876Z,77.91
2022-08-14T04:52:03.963Z,77.81
2022-08-14T04:53:03.728Z,77.91
2022-08-14T04:54:03.696Z,78.81
2022-08-14T04:55:03.972Z,78.61
2022-08-14T04:56:03.966Z,78.21
2022-08-14T04:57:02.879Z,79.22
2022-08-14T04:58:03.413Z,78.61
2022-08-14T04:59:03.798Z,78.11
2022-08-14T05:00:03.299Z,79.52
2022-08-14T05:01:03.151Z,79.42
2022-08-14T05:02:02.237Z,79.02
2022-08-14T05:03:02.719Z,78.31
2022-08-14T05:04:02.813Z,78.31
2022-08-14T05:05:02.611Z,78.31
2022-08-14T05:06:02.421Z,78.61
2022-08-14T05:07:02.308Z,78.61
2022-08-14T05:08:02.530Z,78.31
2022-08-14T05:09:02.894Z,78.91
2022-08-14T05:10:12.912Z,79.11
2022-08-14T05:11:02.748Z,79.22
2022-08-14T05:13:10.948Z,78.61
2022-08-14T05:13:12.719Z,78.91
2022-08-14T05:14:16.795Z,79.52
2022-08-14T05:15:02.317Z,78.81
2022-08-14T05:16:02.050Z,78.81
2022-08-14T05:17:02.427Z,78.91
2022-08-14T05:18:16.957Z,79.11
2022-08-14T05:19:26.900Z,79.22
2022-08-14T05:21:04.911Z,78.81
2022-08-14T05:21:55.360Z,79.11
2022-08-14T05:22:15.676Z,78.51
2022-08-14T05:23:03.390Z,79.32
2022-08-14T05:24:03.148Z,79.62
2022-08-14T05:25:02.677Z,79.11
2022-08-14T05:26:02.802Z,79.22
2022-08-14T05:27:01.926Z,79.58
2022-08-14T05:28:02.255Z,79.18
2022-08-14T05:29:02.494Z,80.29
2022-08-14T05:30:02.215Z,80.99
2022-08-14T05:31:01.901Z,80.58
2022-08-14T05:32:01.989Z,79.48
2022-08-14T05:33:02.103Z,78.98
2022-08-14T05:34:02.212Z,79.08
2022-08-14T05:35:01.990Z,79.35
2022-08-14T05:36:02.063Z,79.14
2022-08-14T05:37:03.161Z,78.54
2022-08-14T05:38:02.013Z,79.24
2022-08-14T05:39:02.130Z,78.44
2022-08-14T05:40:02.649Z,79.54
2022-08-14T05:41:02.544Z,80.45
2022-08-14T05:42:09.817Z,80.01
2022-08-14T05:43:02.782Z,80.11
2022-08-14T05:44:02.898Z,79.41
2022-08-14T05:45:04.183Z,78.40
2022-08-14T05:46:03.036Z,78.40
2022-08-14T05:47:02.152Z,78.56
2022-08-14T05:48:02.169Z,78.97
2022-08-14T05:49:02.506Z,79.27
2022-08-14T05:50:02.362Z,79.47
2022-08-14T05:51:02.499Z,79.17
2022-08-14T05:52:02.810Z,78.42
2022-08-14T05:53:02.997Z,78.42
2022-08-14T05:54:12.701Z,78.19
2022-08-14T05:55:02.537Z,78.99
2022-08-14T05:56:02.623Z,80.56
2022-08-14T05:57:03.044Z,81.36
2022-08-14T05:58:03.040Z,81.76
2022-08-14T05:59:03.288Z,80.62
2022-08-14T06:00:03.103Z,80.42
2022-08-14T06:01:02.758Z,81.29
2022-08-14T06:02:02.537Z,81.09
2022-08-14T06:03:03.978Z,80.48
2022-08-14T06:04:04.570Z,80.44
2022-08-14T06:05:02.964Z,79.44
2022-08-14T06:06:02.853Z,80.04
2022-08-14T06:07:02.933Z,79.71
2022-08-14T06:08:02.398Z,79.00
2022-08-14T06:09:02.408Z,79.10
2022-08-14T06:10:03.995Z,78.67
2022-08-14T06:11:02.694Z,79.17
2022-08-14T06:12:03.157Z,78.33
2022-08-14T06:13:03.094Z,77.83
2022-08-14T06:14:03.569Z,77.93
2022-08-14T06:15:03.525Z,77.99
2022-08-14T06:16:03.437Z,77.79
2022-08-14T06:17:03.595Z,77.19
2022-08-14T06:18:03.698Z,76.95
2022-08-14T06:19:03.656Z,77.25
2022-08-14T06:20:03.793Z,76.42
2022-08-14T06:21:03.828Z,76.12
2022-08-14T06:22:03.345Z,76.32
2022-08-14T06:23:03.383Z,75.89
2022-08-14T06:24:03.537Z,76.18
2022-08-14T06:25:03.692Z,75.85
2022-08-14T06:26:03.557Z,75.65
2022-08-14T06:27:04.591Z,75.55
2022-08-14T06:28:03.898Z,74.91
2022-08-14T06:29:03.256Z,75.01
2022-08-14T06:30:03.314Z,73.82
2022-08-14T06:31:02.781Z,73.48
2022-08-14T06:32:52.506Z,73.38
2022-08-14T06:33:06.764Z,73.38
2022-08-14T06:35:04.622Z,73.35
2022-08-14T06:35:13.136Z,72.85
2022-08-14T06:36:03.646Z,72.35
2022-08-14T06:37:03.785Z,72.11
2022-08-14T06:38:04.350Z,72.31
2022-08-14T06:39:03.411Z,71.88
2022-08-14T06:40:03.443Z,71.69
2022-08-14T06:41:03.651Z,71.69
2022-08-14T06:42:03.883Z,71.95
2022-08-14T06:43:04.085Z,70.85
2022-08-14T06:44:03.845Z,71.15
2022-08-14T06:45:03.773Z,71.15
2022-08-14T06:46:03.795Z,70.72
2022-08-14T06:47:03.431Z,71.01
2022-08-14T06:48:02.957Z,70.72
2022-08-14T06:49:03.499Z,70.59
2022-08-14T06:50:02.965Z,70.48
2022-08-14T06:51:03.090Z,69.89
2022-08-14T06:52:03.595Z,70.06
2022-08-14T06:53:03.788Z,69.76
2022-08-14T06:54:03.771Z,69.46
2022-08-14T06:55:03.653Z,68.43
2022-08-14T06:56:03.439Z,67.83
2022-08-14T06:57:03.694Z,67.54
2022-08-14T06:58:04.059Z,67.71
2022-08-14T06:59:05.302Z,68.20
2022-08-14T07:00:04.049Z,67.80
2022-08-14T07:01:03.932Z,68.30
2022-08-14T07:02:03.235Z,68.37
2022-08-14T07:03:02.740Z,68.37
2022-08-14T07:04:02.928Z,67.64
2022-08-14T07:05:05.300Z,66.65
2022-08-14T07:06:03.012Z,66.25
2022-08-14T07:07:02.745Z,66.42
2022-08-14T07:08:03.003Z,66.12
2022-08-14T07:09:02.739Z,66.82
2022-08-14T07:10:03.009Z,66.61
2022-08-14T07:11:02.451Z,64.93
2022-08-14T07:12:02.856Z,65.79
2022-08-14T07:13:03.947Z,65.30
2022-08-14T07:14:03.136Z,65.20
2022-08-14T07:15:02.834Z,65.69
2022-08-14T07:16:05.293Z,66.16
2022-08-14T07:17:02.437Z,65.56
2022-08-14T07:18:02.464Z,64.77
2022-08-14T07:19:02.314Z,65.03
2022-08-14T07:20:02.432Z,63.75
2022-08-14T07:21:02.451Z,64.64
2022-08-14T07:22:05.491Z,63.92
2022-08-14T07:23:07.936Z,63.71
2022-08-14T07:24:03.146Z,63.62
2022-08-14T07:25:02.740Z,63.32
2022-08-14T07:26:02.885Z,63.02
2022-08-14T07:27:02.776Z,62.79
2022-08-14T07:28:02.661Z,62.43
2022-08-14T07:29:02.281Z,63.62
2022-08-14T07:30:02.703Z,63.22
2022-08-14T07:31:05.018Z,63.42
2022-08-14T07:32:03.118Z,62.90
2022-08-14T07:33:03.157Z,62.60
2022-08-14T07:34:04.107Z,62.30
2022-08-14T07:35:02.615Z,63.49
2022-08-14T07:36:03.347Z,62.90
2022-08-14T07:37:02.066Z,62.50
2022-08-14T07:38:02.171Z,62.70
2022-08-14T07:39:03.028Z,63.26
2022-08-14T07:40:02.412Z,62.47
2022-08-14T07:41:02.632Z,62.57
2022-08-14T07:42:02.084Z,62.37
2022-08-14T07:43:14.691Z,63.62
2022-08-14T07:44:29.307Z,62.54
2022-08-14T07:45:02.537Z,62.04
2022-08-14T07:46:02.813Z,61.55
2022-08-14T07:47:03.693Z,62.60
2022-08-14T07:48:03.083Z,61.91
2022-08-14T07:49:03.111Z,61.32
2022-08-14T07:50:03.036Z,61.10
2022-08-14T07:51:10.907Z,61.10
2022-08-14T07:52:03.381Z,60.50
2022-08-14T07:53:03.325Z,60.41
2022-08-14T07:54:03.486Z,61.59
2022-08-14T07:55:03.351Z,61.29
2022-08-14T07:56:22.038Z,60.08
2022-08-14T07:57:11.866Z,60.18
2022-08-14T07:58:02.722Z,62.15
2022-08-14T07:59:02.862Z,60.57
2022-08-14T08:00:02.962Z,59.75
2022-08-14T08:01:03.050Z,60.94
2022-08-14T08:02:02.217Z,60.74
2022-08-14T08:03:02.420Z,60.44
2022-08-14T08:04:03.443Z,61.80
2022-08-14T08:05:02.742Z,61.30
2022-08-14T08:06:02.554Z,59.63
2022-08-14T08:07:01.813Z,60.12
2022-08-14T08:08:02.118Z,61.50
2022-08-14T08:09:03.152Z,60.41
2022-08-14T08:10:02.527Z,59.11
2022-08-14T08:11:03.737Z,59.01
2022-08-14T08:12:05.045Z,59.20
2022-08-14T08:13:02.922Z,57.73
2022-08-14T08:14:02.477Z,58.91
2022-08-14T08:15:07.108Z,59.50
2022-08-14T08:16:02.753Z,57.82
2022-08-14T08:17:02.922Z,58.51
2022-08-14T08:18:03.943Z,59.80
2022-08-14T08:19:10.111Z,59.20
2022-08-14T08:20:03.103Z,59.50
2022-08-14T08:21:03.198Z,58.69
2022-08-14T08:22:02.372Z,58.69
2022-08-14T08:23:06.444Z,59.34
2022-08-14T08:24:02.449Z,57.57
2022-08-14T08:25:02.661Z,58.95
2022-08-14T08:26:02.789Z,58.36
2022-08-14T08:27:02.661Z,58.53
2022-08-14T08:28:03.501Z,58.33
2022-08-14T08:29:02.905Z,59.61
2022-08-14T08:30:03.018Z,57.84
2022-08-14T08:31:03.074Z,56.83
2022-08-14T08:32:05.903Z,58.11
2022-08-14T08:33:02.981Z,57.12
2022-08-14T08:34:03.083Z,56.93
2022-08-14T08:35:03.092Z,56.83
2022-08-14T08:36:03.184Z,57.29
2022-08-14T08:37:07.125Z,57.78
2022-08-14T08:38:03.085Z,56.90
2022-08-14T08:39:16.330Z,57.39
2022-08-14T08:40:04.202Z,55.52
2022-08-14T08:41:02.599Z,55.91
2022-08-14T08:42:02.742Z,55.91
2022-08-14T08:43:02.863Z,56.51
2022-08-14T08:44:03.039Z,56.41
2022-08-14T08:45:02.798Z,56.68
2022-08-14T08:46:03.009Z,55.60
2022-08-14T08:47:03.624Z,56.77
2022-08-14T08:48:02.952Z,56.97
2022-08-14T08:49:02.994Z,55.86
2022-08-14T08:50:03.270Z,55.86
2022-08-14T08:51:03.409Z,56.65
2022-08-14T08:52:02.509Z,56.23
2022-08-14T08:53:02.711Z,55.74
2022-08-14T08:54:02.251Z,54.85
2022-08-14T08:55:04.542Z,54.17
2022-08-14T08:56:02.317Z,55.93
2022-08-14T08:57:03.157Z,56.72
2022-08-14T08:58:03.531Z,55.35
2022-08-14T08:59:03.173Z,53.87
2022-08-14T09:00:02.927Z,53.75
2022-08-14T09:01:03.150Z,55.61
2022-08-14T09:02:04.886Z,52.67
2022-08-14T09:03:02.459Z,52.96
2022-08-14T09:04:02.103Z,52.86
2022-08-14T09:05:02.232Z,53.53
2022-08-14T09:06:02.355Z,52.74
2022-08-14T09:07:10.960Z,54.70
2022-08-14T09:08:02.766Z,53.63
2022-08-14T09:09:02.855Z,54.41
2022-08-14T09:10:02.971Z,53.23
2022-08-14T09:11:02.550Z,52.74
2022-08-14T09:12:02.408Z,54.70
2022-08-14T09:13:02.040Z,53.33
2022-08-14T09:14:02.007Z,52.94
2022-08-14T09:15:02.146Z,52.23
2022-08-14T09:16:18.633Z,53.20
2022-08-14T09:17:02.711Z,52.91
2022-08-14T09:18:03.277Z,53.20
2022-08-14T09:19:03.114Z,52.52
2022-08-14T09:20:03.942Z,51.25
2022-08-14T09:21:02.975Z,51.34
2022-08-14T09:22:02.810Z,50.76
2022-08-14T09:23:02.516Z,50.85
2022-08-14T09:24:29.134Z,51.27
2022-08-14T09:25:02.710Z,52.62
2022-08-14T09:26:05.056Z,53.69
2022-08-14T09:27:03.317Z,52.50
2022-08-14T09:28:02.912Z,52.98
2022-08-14T09:29:02.954Z,52.40
2022-08-14T09:30:30.548Z,50.73
2022-08-14T09:31:08.587Z,51.71
2022-08-14T09:32:03.076Z,51.12
2022-08-14T09:33:11.114Z,51.25
2022-08-14T09:34:04.379Z,51.73
2022-08-14T09:35:02.570Z,50.76
2022-08-14T09:36:02.634Z,52.33
2022-08-14T09:37:02.782Z,51.05
2022-08-14T09:38:02.312Z,51.54
2022-08-14T09:39:02.295Z,50.56
2022-08-14T09:40:02.326Z,49.95
2022-08-14T09:41:02.329Z,51.51
2022-08-14T09:42:17.545Z,50.63
2022-08-14T09:43:03.019Z,52.47
2022-08-14T09:44:06.275Z,51.20
2022-08-14T09:45:07.824Z,51.00
2022-08-14T09:46:02.851Z,51.46
2022-08-14T09:47:03.632Z,49.70
2022-08-14T09:48:03.579Z,49.21
2022-08-14T09:49:03.535Z,49.31
2022-08-14T09:50:03.678Z,50.59
2022-08-14T09:52:03.390Z,50.78
2022-08-14T09:53:03.949Z,48.92
2022-08-14T09:54:19.585Z,49.99
2022-08-14T09:55:03.088Z,50.27
2022-08-14T09:56:02.797Z,49.29
2022-08-14T09:57:03.608Z,49.68
2022-08-14T09:58:03.570Z,50.07
2022-08-14T09:59:03.109Z,49.58
2022-08-14T10:00:03.524Z,50.34
2022-08-14T10:01:06.107Z,49.16
2022-08-14T10:02:02.352Z,48.09
2022-08-14T10:03:03.626Z,48.75
2022-08-14T10:04:02.658Z,45.33
2022-08-14T10:05:02.773Z,48.65
2022-08-14T10:06:02.620Z,45.82
2022-08-14T10:07:03.469Z,45.45
2022-08-14T10:08:03.399Z,45.84
2022-08-14T10:09:03.449Z,47.14
2022-08-14T10:10:03.372Z,47.04
2022-08-14T10:11:03.447Z,49.38
2022-08-14T10:12:04.261Z,46.23
2022-08-14T10:13:02.600Z,46.92
2022-08-14T10:14:02.830Z,48.26
2022-08-14T10:15:02.900Z,49.53
2022-08-14T10:16:02.755Z,48.07
2022-08-14T10:17:04.813Z,46.31
2022-08-14T10:18:03.905Z,45.33
2022-08-14T10:19:03.597Z,46.50
2022-08-14T10:20:03.591Z,45.62
2022-08-14T10:21:03.944Z,45.82
2022-08-14T10:23:12.612Z,46.41
2022-08-14T10:23:14.836Z,45.33
2022-08-14T10:24:03.857Z,45.33
2022-08-14T10:25:03.684Z,46.50
2022-08-14T10:26:03.665Z,46.00
2022-08-14T10:27:03.459Z,44.82
2022-08-14T10:28:03.398Z,45.31
2022-08-14T10:29:18.790Z,45.80
2022-08-14T10:30:03.425Z,45.48
2022-08-14T10:31:03.274Z,47.14
2022-08-14T10:32:03.253Z,45.39
2022-08-14T10:33:03.547Z,45.95
2022-08-14T10:34:03.346Z,44.87
2022-08-14T10:35:03.411Z,45.95
2022-08-14T10:36:03.866Z,44.56
2022-08-14T10:37:03.025Z,45.05
2022-08-14T10:38:03.895Z,43.88
2022-08-14T10:39:04.012Z,43.39
2022-08-14T10:40:10.519Z,43.88
2022-08-14T10:41:03.999Z,44.56
2022-08-14T10:42:03.918Z,43.08
2022-08-14T10:43:04.266Z,42.00
2022-08-14T10:44:04.141Z,42.32
2022-08-14T10:45:04.396Z,43.19
2022-08-14T10:47:37.037Z,42.71
2022-08-14T10:47:41.117Z,43.29
2022-08-14T10:48:09.173Z,43.76
2022-08-14T10:49:03.857Z,42.40
2022-08-14T10:50:03.042Z,41.73
2022-08-14T10:51:03.410Z,42.22
2022-08-14T10:52:03.550Z,42.12
2022-08-14T10:53:03.405Z,42.61
2022-08-14T10:54:17.153Z,43.59
2022-08-14T10:55:03.513Z,43.78
2022-08-14T10:56:03.729Z,43.27
2022-08-14T10:57:03.608Z,43.27
2022-08-14T10:58:03.715Z,43.47
2022-08-14T10:59:03.881Z,43.84
2022-08-14T11:00:03.934Z,44.03
2022-08-14T11:01:04.190Z,44.23
2022-08-14T11:02:03.791Z,44.79
2022-08-14T11:03:02.832Z,42.65
2022-08-14T11:04:02.671Z,43.30
2022-08-14T11:05:04.998Z,42.91
2022-08-14T11:06:02.751Z,44.38
2022-08-14T11:07:02.813Z,43.09
2022-08-14T11:08:02.941Z,42.60
2022-08-14T11:09:02.689Z,44.06
2022-08-14T11:10:02.620Z,43.29
2022-08-14T11:11:02.589Z,42.68
2022-08-14T11:12:34.567Z,42.97
2022-08-14T11:13:04.472Z,42.87
2022-08-14T11:14:03.369Z,41.71
2022-08-14T11:15:03.222Z,40.44
2022-08-14T11:16:03.389Z,41.34
2022-08-14T11:17:02.879Z,41.34
2022-08-14T11:18:02.711Z,41.93
2022-08-14T11:19:02.736Z,40.27
2022-08-14T11:20:02.597Z,39.90
2022-08-14T11:21:02.496Z,41.48
2022-08-14T11:22:02.548Z,41.28
2022-08-14T11:23:02.661Z,41.99
2022-08-14T11:24:02.789Z,42.76
2022-08-14T11:25:02.771Z,43.05
2022-08-14T11:26:02.943Z,42.74
2022-08-14T11:27:02.983Z,41.86
2022-08-14T11:28:02.558Z,42.74
2022-08-14T11:29:02.687Z,41.67
2022-08-14T11:30:51.056Z,42.65
2022-08-14T11:31:03.552Z,43.23
2022-08-14T11:32:02.798Z,42.63
2022-08-14T11:33:03.084Z,42.14
2022-08-14T11:34:02.877Z,40.58
2022-08-14T11:35:03.050Z,42.43
2022-08-14T11:36:03.194Z,41.73
2022-08-14T11:37:18.043Z,41.73
2022-08-14T11:38:02.960Z,40.95
2022-08-14T11:39:03.077Z,40.85
2022-08-14T11:40:02.661Z,40.95
2022-08-14T11:41:02.817Z,41.44
2022-08-14T11:42:07.764Z,40.56
2022-08-14T11:43:02.984Z,39.20
2022-08-14T11:44:03.135Z,40.47
2022-08-14T11:45:03.215Z,41.73
2022-08-14T11:46:03.614Z,39.86
2022-08-14T11:47:06.896Z,39.98
2022-08-14T11:48:11.115Z,39.49
2022-08-14T11:49:05.603Z,40.75
2022-08-14T11:50:02.683Z,40.66
2022-08-14T11:51:02.846Z,39.96
2022-08-14T11:52:02.990Z,40.15
2022-08-14T11:53:04.487Z,39.47
2022-08-14T11:54:03.379Z,40.15
2022-08-14T11:55:03.517Z,42.08
2022-08-14T11:56:03.840Z,41.78
2022-08-14T11:57:04.680Z,40.60
2022-08-14T11:58:03.032Z,41.86
2022-08-14T11:59:03.032Z,40.79
2022-08-14T12:00:03.196Z,40.48
2022-08-14T12:01:03.014Z,41.26
2022-08-14T12:02:03.118Z,38.83
2022-08-14T12:03:02.067Z,39.90
2022-08-14T12:04:02.115Z,40.77
2022-08-14T12:05:04.083Z,39.03
2022-08-14T12:06:02.309Z,38.91
2022-08-14T12:07:02.497Z,39.39
2022-08-14T12:08:06.727Z,39.29
2022-08-14T12:09:02.617Z,38.54
2022-08-14T12:10:25.555Z,38.83
2022-08-14T12:11:02.462Z,39.03
2022-08-14T12:12:02.583Z,39.29
2022-08-14T12:13:02.296Z,38.13
2022-08-14T12:14:02.451Z,39.69
2022-08-14T12:15:02.677Z,38.71
2022-08-14T12:16:06.584Z,39.39
2022-08-14T12:17:02.375Z,39.78
2022-08-14T12:18:02.684Z,39.20
2022-08-14T12:19:02.864Z,39.47
2022-08-14T12:20:03.261Z,40.15
2022-08-14T12:21:02.337Z,39.74
2022-08-14T12:22:02.333Z,38.09
2022-08-14T12:23:05.420Z,37.32
2022-08-14T12:24:03.281Z,38.19
2022-08-14T12:25:08.460Z,37.63
2022-08-14T12:26:39.178Z,38.40
2022-08-14T12:27:03.517Z,36.76
2022-08-14T12:28:03.738Z,38.13
2022-08-14T12:29:03.742Z,38.13
2022-08-14T12:30:03.645Z,37.94
2022-08-14T12:31:03.752Z,38.62
2022-08-14T12:32:03.584Z,37.74
2022-08-14T12:33:02.938Z,37.84
2022-08-14T12:34:03.076Z,38.71
2022-08-14T12:35:02.959Z,37.45
2022-08-14T12:36:04.538Z,36.48
2022-08-14T12:37:02.971Z,35.53
2022-08-14T12:38:03.069Z,36.30
2022-08-14T12:39:03.184Z,38.17
2022-08-14T12:40:03.470Z,36.61
2022-08-14T12:41:02.888Z,36.83
2022-08-14T12:42:02.997Z,36.94
2022-08-14T12:43:03.517Z,36.83
2022-08-14T12:44:03.650Z,38.21
2022-08-14T12:45:04.294Z,40.13
2022-08-14T12:46:03.546Z,38.67
2022-08-14T12:47:03.514Z,37.68
2022-08-14T12:48:21.702Z,37.49
2022-08-14T12:49:03.460Z,38.07
2022-08-14T12:50:03.661Z,37.30
2022-08-14T12:51:03.037Z,37.68
2022-08-14T12:52:03.158Z,38.85
2022-08-14T12:53:14.566Z,37.20